Time;durP1;ratioP1;P1;durP2;ratioP2;P2;SDS_P1;SDS_P2;PMS_P1;PMS_P2;Temp;Humidity;BMP_temperature;BMP_pressure;BME280_temperature;BME280_humidity;BME280_pressure;Samples;Min_cycle;Max_cycle;Signal;HPM_P1;HPM_P2
2024/01/11 00:00:51;;;;;;;9.50;8.60;;;21.40;51.10;;;;;;5048257;28;20488;-65
2024/01/11 00:03:19;;;;;;;10.27;9.27;;;21.40;51.10;;;;;;5047669;28;20454;-65
2024/01/11 00:05:49;;;;;;;8.60;7.83;;;21.40;51.10;;;;;;5044768;28;20848;-65
2024/01/11 00:08:17;;;;;;;11.07;8.43;;;21.40;51.10;;;;;;5049687;28;21024;-65
2024/01/11 00:10:45;;;;;;;9.87;8.90;;;21.30;51.10;;;;;;5044310;28;20938;-67
2024/01/11 00:13:13;;;;;;;10.40;9.37;;;21.30;51.10;;;;;;5047088;28;20457;-65
2024/01/11 00:15:42;;;;;;;10.00;8.00;;;21.30;51.10;;;;;;5043330;28;20473;-66
2024/01/11 00:18:10;;;;;;;10.30;9.30;;;21.30;51.10;;;;;;5046003;28;20934;-65
2024/01/11 00:20:38;;;;;;;8.97;8.07;;;21.30;51.10;;;;;;5046680;28;20489;-65
2024/01/11 00:23:08;;;;;;;9.40;8.40;;;21.30;51.10;;;;;;5048008;28;20457;-65
2024/01/11 00:25:36;;;;;;;10.40;9.40;;;21.30;51.10;;;;;;5047367;28;20805;-65
2024/01/11 00:28:05;;;;;;;10.00;9.00;;;21.30;51.10;;;;;;5048538;28;20466;-66
2024/01/11 00:30:33;;;;;;;9.67;8.87;;;21.30;51.10;;;;;;5043060;28;20462;-64
2024/01/11 00:33:02;;;;;;;10.30;9.30;;;21.30;51.10;;;;;;5048617;28;20456;-67
2024/01/11 00:35:31;;;;;;;10.03;9.03;;;21.30;51.10;;;;;;5048491;28;20454;-65
2024/01/11 00:37:59;;;;;;;8.77;7.97;;;21.30;51.10;;;;;;5039917;28;20480;-65
2024/01/11 00:40:29;;;;;;;9.00;8.10;;;21.30;51.10;;;;;;5044256;28;20569;-65
2024/01/11 00:42:57;;;;;;;9.03;8.23;;;21.30;51.00;;;;;;5047920;28;20481;-65
2024/01/11 00:45:25;;;;;;;9.30;8.40;;;21.30;51.10;;;;;;5044988;28;20471;-66
2024/01/11 00:47:53;;;;;;;10.87;9.03;;;21.20;51.00;;;;;;5042923;28;20831;-65
2024/01/11 00:50:22;;;;;;;8.97;8.10;;;21.20;51.00;;;;;;5046572;28;21014;-64
2024/01/11 00:52:50;;;;;;;9.13;8.33;;;21.20;51.00;;;;;;5045125;28;20459;-68
2024/01/11 00:55:18;;;;;;;9.87;9.07;;;21.20;51.00;;;;;;5048594;28;20923;-65
2024/01/11 00:57:48;;;;;;;10.27;9.27;;;21.20;51.00;;;;;;5049632;28;21200;-65
2024/01/11 01:00:16;;;;;;;8.87;8.10;;;21.20;51.00;;;;;;5047133;28;20467;-66
2024/01/11 01:02:44;;;;;;;9.53;8.60;;;21.20;51.00;;;;;;5046137;28;20872;-66
2024/01/11 01:05:13;;;;;;;9.10;8.20;;;21.20;51.00;;;;;;5045755;28;20547;-65
2024/01/11 01:07:41;;;;;;;9.40;8.50;;;21.20;51.00;;;;;;5045222;28;20601;-66
2024/01/11 01:10:10;;;;;;;9.00;8.10;;;21.20;51.00;;;;;;5045647;28;20771;-65
2024/01/11 01:12:38;;;;;;;9.40;8.50;;;21.10;51.00;;;;;;5044499;28;20469;-65
2024/01/11 01:15:08;;;;;;;8.83;8.03;;;21.10;51.00;;;;;;5047510;28;20472;-65
2024/01/11 01:17:38;;;;;;;8.87;8.07;;;21.10;51.00;;;;;;5049459;28;20464;-65
2024/01/11 01:20:07;;;;;;;9.50;8.63;;;21.10;50.90;;;;;;5043388;28;20467;-65
2024/01/11 01:22:36;;;;;;;9.53;8.67;;;21.10;51.00;;;;;;5044538;28;20467;-65
2024/01/11 01:25:05;;;;;;;9.80;8.80;;;21.10;51.00;;;;;;5047777;28;20469;-65
2024/01/11 01:27:33;;;;;;;9.30;8.40;;;21.10;51.00;;;;;;5042622;28;20522;-65
2024/01/11 01:30:01;;;;;;;9.07;8.17;;;21.10;50.90;;;;;;5047959;28;20870;-66
2024/01/11 01:32:31;;;;;;;10.10;9.20;;;21.10;50.90;;;;;;5047319;28;20469;-64
2024/01/11 01:34:59;;;;;;;9.93;8.53;;;21.10;50.90;;;;;;5045541;28;20468;-64
2024/01/11 01:37:28;;;;;;;9.43;8.60;;;21.00;50.90;;;;;;5044793;28;20451;-65
2024/01/11 01:39:56;;;;;;;9.90;8.90;;;21.00;50.90;;;;;;5039701;28;20537;-66
2024/01/11 01:42:24;;;;;;;9.23;8.07;;;21.00;50.90;;;;;;5061782;28;20484;-66
2024/01/11 01:44:52;;;;;;;10.60;9.37;;;21.00;50.90;;;;;;5044440;28;20473;-65
2024/01/11 01:47:21;;;;;;;9.50;8.60;;;21.00;50.80;;;;;;5046603;28;20441;-66
2024/01/11 01:49:51;;;;;;;9.40;8.50;;;21.00;50.90;;;;;;5041692;28;20453;-65
2024/01/11 01:52:21;;;;;;;9.50;8.60;;;21.00;50.90;;;;;;5043147;28;20499;-65
2024/01/11 01:54:50;;;;;;;10.23;8.97;;;21.00;50.90;;;;;;5046562;28;20684;-65
2024/01/11 01:57:21;;;;;;;10.00;9.10;;;21.00;50.80;;;;;;5046827;28;20876;-66
2024/01/11 01:59:52;;;;;;;9.67;8.77;;;21.00;50.80;;;;;;5045897;28;20460;-65
2024/01/11 02:02:21;;;;;;;10.40;9.50;;;21.00;50.80;;;;;;5044520;28;20472;-65
2024/01/11 02:04:51;;;;;;;9.73;8.73;;;21.00;50.70;;;;;;5044365;28;20941;-66
2024/01/11 02:07:20;;;;;;;9.77;8.90;;;21.00;50.70;;;;;;5046976;28;20506;-64
2024/01/11 02:09:48;;;;;;;8.90;8.00;;;21.00;50.80;;;;;;5042223;28;20451;-65
2024/01/11 02:12:17;;;;;;;10.10;9.10;;;20.90;50.70;;;;;;5041203;28;20464;-68
2024/01/11 02:14:46;;;;;;;9.47;8.53;;;20.90;50.80;;;;;;5042163;28;20583;-66
2024/01/11 02:17:14;;;;;;;10.00;9.00;;;20.90;50.70;;;;;;5044184;28;20812;-65
2024/01/11 02:19:42;;;;;;;10.40;9.40;;;20.90;50.70;;;;;;5048997;28;20467;-65
2024/01/11 02:22:21;;;;;;;10.67;9.67;;;20.90;50.70;;;;;;5051232;28;20483;-64
2024/01/11 02:24:53;;;;;;;9.43;8.53;;;20.90;50.70;;;;;;5048396;28;20448;-65
2024/01/11 02:27:21;;;;;;;9.77;8.70;;;20.90;50.60;;;;;;5052507;28;20464;-64
2024/01/11 02:29:49;;;;;;;10.50;9.57;;;20.90;50.60;;;;;;5048505;28;20455;-67
2024/01/11 02:32:17;;;;;;;9.00;8.10;;;20.90;50.60;;;;;;5049376;28;20466;-66
2024/01/11 02:34:46;;;;;;;9.40;8.50;;;20.90;50.60;;;;;;5045944;28;20802;-65
2024/01/11 02:37:14;;;;;;;8.67;7.87;;;20.90;50.60;;;;;;5047195;28;20460;-65
2024/01/11 02:39:42;;;;;;;10.43;9.43;;;20.80;50.60;;;;;;5051937;28;20456;-66
2024/01/11 02:42:12;;;;;;;8.93;7.93;;;20.80;50.60;;;;;;5051169;28;20529;-65
2024/01/11 02:44:40;;;;;;;9.40;8.50;;;20.80;50.50;;;;;;5042541;28;20926;-64
2024/01/11 02:47:09;;;;;;;9.33;8.53;;;20.80;50.60;;;;;;5046081;28;20444;-65
2024/01/11 02:49:37;;;;;;;8.87;8.17;;;20.80;50.60;;;;;;5049770;28;20465;-65
2024/01/11 02:52:06;;;;;;;10.23;8.90;;;20.80;50.60;;;;;;5047142;28;20467;-65
2024/01/11 02:54:34;;;;;;;9.10;8.13;;;20.80;50.60;;;;;;5051575;28;20759;-65
2024/01/11 02:57:02;;;;;;;10.90;9.03;;;20.80;50.60;;;;;;5048331;28;20454;-66
2024/01/11 02:59:32;;;;;;;9.60;8.60;;;20.80;50.60;;;;;;5050083;28;20507;-65
2024/01/11 03:02:00;;;;;;;10.70;9.57;;;20.80;50.60;;;;;;5047852;28;20526;-65
2024/01/11 03:04:28;;;;;;;9.73;8.90;;;20.70;50.60;;;;;;5047678;28;20480;-65
2024/01/11 03:06:57;;;;;;;9.43;8.37;;;20.70;50.60;;;;;;5049853;28;20485;-65
2024/01/11 03:09:25;;;;;;;8.63;7.60;;;20.70;50.80;;;;;;5051972;28;20470;-65
2024/01/11 03:11:53;;;;;;;9.50;8.50;;;20.70;50.70;;;;;;5049033;28;20509;-65
2024/01/11 03:14:21;;;;;;;8.63;7.73;;;20.70;50.70;;;;;;5047266;28;20478;-65
2024/01/11 03:16:51;;;;;;;9.43;8.53;;;20.70;50.70;;;;;;5044708;28;20460;-66
2024/01/11 03:19:19;;;;;;;8.87;8.03;;;20.70;50.70;;;;;;5049565;28;20455;-65
2024/01/11 03:21:48;;;;;;;9.00;8.10;;;20.70;50.70;;;;;;5049611;28;20475;-65
2024/01/11 03:24:16;;;;;;;8.80;7.67;;;20.60;50.70;;;;;;5044086;28;20455;-66
2024/01/11 03:26:44;;;;;;;9.17;8.33;;;20.60;50.70;;;;;;5046434;28;20471;-65
2024/01/11 03:29:12;;;;;;;9.00;8.20;;;20.60;50.70;;;;;;5048543;28;20557;-65
2024/01/11 03:31:43;;;;;;;9.13;8.00;;;20.60;50.80;;;;;;5049080;28;20492;-64
2024/01/11 03:34:12;;;;;;;9.87;8.93;;;20.60;50.70;;;;;;5046736;28;20457;-64
2024/01/11 03:36:41;;;;;;;8.37;7.53;;;20.60;50.70;;;;;;5044653;28;20847;-65
2024/01/11 03:39:09;;;;;;;9.00;8.20;;;20.60;50.70;;;;;;5050803;28;20463;-65
2024/01/11 03:41:37;;;;;;;8.87;7.97;;;20.60;50.70;;;;;;5046358;28;20939;-64
2024/01/11 03:44:06;;;;;;;8.70;7.90;;;20.60;50.70;;;;;;5050459;28;20820;-66
2024/01/11 03:46:34;;;;;;;9.53;8.53;;;20.60;50.70;;;;;;5052902;28;20465;-64
2024/01/11 03:49:03;;;;;;;8.53;7.73;;;20.60;50.70;;;;;;5041101;28;21148;-64
2024/01/11 03:51:32;;;;;;;9.03;8.13;;;20.60;50.70;;;;;;5048481;28;20474;-65
2024/01/11 03:54:01;;;;;;;8.27;7.47;;;20.60;50.70;;;;;;5049229;28;20847;-66
2024/01/11 03:56:29;;;;;;;10.40;8.60;;;20.50;50.70;;;;;;5050920;28;20992;-65
2024/01/11 03:58:57;;;;;;;10.70;9.60;;;20.50;50.70;;;;;;5047427;28;20463;-64
2024/01/11 04:01:25;;;;;;;9.80;8.80;;;20.50;50.70;;;;;;5045655;28;20500;-65
2024/01/11 04:03:54;;;;;;;8.87;8.07;;;20.50;50.70;;;;;;5047666;28;20493;-65
2024/01/11 04:06:23;;;;;;;8.43;7.53;;;20.50;50.70;;;;;;5049498;28;20452;-66
2024/01/11 04:08:54;;;;;;;9.47;8.57;;;20.50;50.70;;;;;;5043359;28;20506;-64
2024/01/11 04:11:22;;;;;;;8.40;7.60;;;20.50;50.70;;;;;;5046086;28;20463;-65
2024/01/11 04:13:51;;;;;;;8.83;7.87;;;20.50;50.70;;;;;;5047550;28;20466;-64
2024/01/11 04:16:19;;;;;;;9.60;8.43;;;20.50;50.60;;;;;;5046608;28;20451;-64
2024/01/11 04:18:47;;;;;;;8.47;7.73;;;20.50;50.60;;;;;;5045118;28;20455;-65
2024/01/11 04:21:23;;;;;;;8.20;7.50;;;20.50;50.70;;;;;;5046818;28;20451;-65
2024/01/11 04:23:52;;;;;;;8.10;7.40;;;20.50;50.70;;;;;;5051346;28;20509;-65
2024/01/11 04:26:21;;;;;;;8.43;7.63;;;20.40;50.70;;;;;;5049627;28;20460;-65
2024/01/11 04:28:50;;;;;;;8.37;7.57;;;20.40;50.70;;;;;;5047978;28;20456;-65
2024/01/11 04:31:18;;;;;;;9.03;8.20;;;20.40;50.60;;;;;;5049269;28;20503;-65
2024/01/11 04:33:47;;;;;;;10.60;8.50;;;20.40;50.70;;;;;;5044462;28;20452;-64
2024/01/11 04:36:15;;;;;;;8.80;7.90;;;20.40;50.70;;;;;;5045178;28;20460;-65
2024/01/11 04:38:44;;;;;;;10.23;9.10;;;20.40;50.70;;;;;;5048963;28;20486;-66
2024/01/11 04:41:15;;;;;;;8.73;7.80;;;20.40;50.70;;;;;;5047183;28;20456;-66
2024/01/11 04:43:44;;;;;;;9.20;7.50;;;20.40;50.70;;;;;;5048681;28;20572;-67
2024/01/11 04:46:17;;;;;;;9.03;8.13;;;20.40;50.70;;;;;;5053102;28;20459;-66
2024/01/11 04:48:45;;;;;;;9.43;8.10;;;20.40;50.70;;;;;;5046223;28;20812;-65
2024/01/11 04:51:14;;;;;;;8.63;7.77;;;20.40;50.70;;;;;;5038450;28;20478;-66
2024/01/11 04:53:44;;;;;;;9.37;8.33;;;20.40;50.70;;;;;;5047535;28;20842;-66
2024/01/11 04:56:16;;;;;;;8.10;7.10;;;20.40;50.70;;;;;;5044632;28;20522;-65
2024/01/11 04:58:45;;;;;;;8.50;7.70;;;20.40;50.60;;;;;;5047023;28;20804;-66
2024/01/11 05:01:14;;;;;;;9.47;8.57;;;20.30;50.60;;;;;;5047188;28;20452;-66
2024/01/11 05:03:43;;;;;;;9.10;8.27;;;20.40;50.70;;;;;;5050931;28;20490;-66
2024/01/11 05:06:17;;;;;;;8.00;7.20;;;20.30;50.60;;;;;;5044469;28;20868;-65
2024/01/11 05:08:45;;;;;;;9.00;8.10;;;20.40;50.60;;;;;;5054494;28;20460;-65
2024/01/11 05:11:19;;;;;;;8.73;7.90;;;20.40;50.60;;;;;;5051733;28;20459;-65
2024/01/11 05:13:48;;;;;;;9.87;8.87;;;20.40;50.50;;;;;;5048973;28;20485;-65
2024/01/11 05:16:21;;;;;;;10.70;8.77;;;20.40;50.40;;;;;;5043583;28;20487;-66
2024/01/11 05:18:51;;;;;;;9.53;8.57;;;20.40;50.40;;;;;;5046243;28;20451;-65
2024/01/11 05:21:19;;;;;;;9.40;8.40;;;20.40;50.20;;;;;;5044585;28;20505;-66
2024/01/11 05:23:48;;;;;;;10.40;8.53;;;20.50;50.10;;;;;;5041332;28;20826;-65
2024/01/11 05:26:19;;;;;;;8.33;7.50;;;20.50;50.00;;;;;;5047116;28;20471;-66
2024/01/11 05:28:47;;;;;;;9.23;8.33;;;20.50;49.90;;;;;;5043263;28;20469;-65
2024/01/11 05:31:16;;;;;;;10.20;8.93;;;20.60;49.80;;;;;;5037884;28;20451;-65
2024/01/11 05:33:46;;;;;;;9.67;8.77;;;20.60;49.80;;;;;;5045468;28;20462;-65
2024/01/11 05:36:15;;;;;;;8.80;8.00;;;20.60;49.70;;;;;;5045175;28;20491;-66
2024/01/11 05:38:43;;;;;;;11.83;8.80;;;20.60;49.70;;;;;;5044597;28;20570;-65
2024/01/11 05:41:12;;;;;;;9.80;8.80;;;20.60;49.60;;;;;;5042984;28;20464;-65
2024/01/11 05:43:42;;;;;;;10.40;9.30;;;20.70;49.60;;;;;;5039914;28;20990;-65
2024/01/11 05:46:10;;;;;;;9.50;8.60;;;20.70;49.60;;;;;;5046414;28;20454;-66
2024/01/11 05:48:38;;;;;;;9.63;8.63;;;20.70;49.50;;;;;;5041414;28;20491;-65
2024/01/11 05:51:07;;;;;;;9.10;8.20;;;20.80;49.60;;;;;;5042258;28;20458;-66
2024/01/11 05:53:35;;;;;;;9.17;8.17;;;20.80;49.70;;;;;;5042708;28;20933;-66
2024/01/11 05:56:09;;;;;;;9.80;8.67;;;20.80;49.90;;;;;;5047560;28;20534;-68
2024/01/11 05:58:38;;;;;;;9.93;8.53;;;20.90;50.10;;;;;;5039536;28;20449;-66
2024/01/11 06:01:08;;;;;;;9.50;8.60;;;20.90;50.30;;;;;;5042398;28;20494;-66
2024/01/11 06:03:38;;;;;;;11.90;10.07;;;20.90;50.50;;;;;;5043014;28;20490;-66
2024/01/11 06:06:07;;;;;;;9.53;8.57;;;21.00;50.60;;;;;;5045654;28;20471;-66
2024/01/11 06:08:36;;;;;;;10.30;8.20;;;21.00;50.70;;;;;;5041255;28;20462;-65
2024/01/11 06:11:05;;;;;;;11.13;8.83;;;21.10;50.80;;;;;;5041965;28;20810;-67
2024/01/11 06:13:34;;;;;;;13.60;8.70;;;21.10;50.90;;;;;;5039490;28;20468;-66
2024/01/11 06:16:02;;;;;;;8.77;7.93;;;21.10;50.90;;;;;;5048778;28;20463;-66
2024/01/11 06:18:32;;;;;;;11.27;9.13;;;21.10;50.90;;;;;;5040291;28;20479;-66
2024/01/11 06:21:00;;;;;;;10.13;8.83;;;21.10;50.90;;;;;;5043767;28;20506;-66
2024/01/11 06:23:28;;;;;;;9.03;8.13;;;21.20;50.90;;;;;;5039691;28;20842;-67
2024/01/11 06:25:56;;;;;;;9.77;8.27;;;21.20;50.90;;;;;;5043707;28;20455;-67
2024/01/11 06:28:25;;;;;;;8.27;7.40;;;21.20;50.90;;;;;;5046412;28;20493;-66
2024/01/11 06:30:53;;;;;;;12.27;8.63;;;21.20;50.90;;;;;;5038685;28;20463;-66
2024/01/11 06:33:21;;;;;;;10.37;9.43;;;21.20;51.00;;;;;;5042856;28;20832;-67
2024/01/11 06:35:51;;;;;;;9.60;8.60;;;21.20;51.00;;;;;;5046291;28;20508;-67
2024/01/11 06:38:20;;;;;;;8.27;7.30;;;21.20;51.10;;;;;;5037186;28;20583;-67
2024/01/11 06:40:48;;;;;;;9.27;7.87;;;21.20;51.20;;;;;;5043306;28;20492;-66
2024/01/11 06:43:17;;;;;;;11.47;8.73;;;21.20;51.30;;;;;;5044019;28;20470;-66
2024/01/11 06:45:45;;;;;;;9.70;8.70;;;21.20;51.40;;;;;;5041461;28;20467;-67
2024/01/11 06:48:13;;;;;;;12.17;9.80;;;21.20;51.30;;;;;;5040073;28;20456;-67
2024/01/11 06:50:42;;;;;;;11.63;8.13;;;21.20;51.30;;;;;;5043827;28;20490;-67
2024/01/11 06:53:12;;;;;;;12.27;9.77;;;21.20;51.30;;;;;;5039341;28;20466;-66
2024/01/11 06:55:41;;;;;;;12.50;9.50;;;21.20;51.40;;;;;;5046061;28;20472;-67
2024/01/11 06:58:09;;;;;;;11.67;8.87;;;21.20;51.40;;;;;;5044559;28;20795;-67
2024/01/11 07:00:42;;;;;;;11.93;8.80;;;21.20;51.40;;;;;;5044547;28;20499;-66
2024/01/11 07:03:11;;;;;;;10.70;9.13;;;21.20;51.40;;;;;;5042342;28;20782;-66
2024/01/11 07:05:39;;;;;;;11.00;9.03;;;21.20;51.50;;;;;;5044458;28;20504;-67
2024/01/11 07:08:08;;;;;;;12.50;8.87;;;21.20;51.60;;;;;;5047927;28;20491;-67
2024/01/11 07:10:38;;;;;;;9.63;8.43;;;21.20;51.70;;;;;;5049754;28;20472;-67
2024/01/11 07:13:06;;;;;;;11.27;9.43;;;21.20;51.70;;;;;;5047918;28;20466;-67
2024/01/11 07:15:35;;;;;;;10.97;9.17;;;21.20;51.80;;;;;;5050458;28;20460;-67
2024/01/11 07:18:03;;;;;;;11.27;9.40;;;21.20;51.80;;;;;;5050883;28;21030;-67
2024/01/11 07:20:32;;;;;;;13.07;9.13;;;21.20;51.70;;;;;;5049447;28;20551;-66
2024/01/11 07:23:00;;;;;;;12.77;10.00;;;21.20;51.70;;;;;;5047680;28;20510;-67
2024/01/11 07:25:29;;;;;;;10.10;8.90;;;21.20;51.60;;;;;;5045967;28;20559;-66
2024/01/11 07:27:58;;;;;;;13.50;9.60;;;21.20;51.60;;;;;;5044721;28;20980;-66
2024/01/11 07:30:27;;;;;;;10.90;8.93;;;21.20;51.60;;;;;;5051486;28;20467;-66
2024/01/11 07:32:55;;;;;;;11.80;10.27;;;21.20;51.60;;;;;;5043784;28;20540;-66
2024/01/11 07:35:23;;;;;;;9.40;8.43;;;21.20;51.50;;;;;;5050784;28;20462;-67
2024/01/11 07:37:52;;;;;;;10.70;9.40;;;21.20;51.50;;;;;;5047610;28;20551;-66
2024/01/11 07:40:20;;;;;;;11.00;8.83;;;21.20;51.60;;;;;;5047737;28;20457;-66
2024/01/11 07:42:49;;;;;;;10.63;9.17;;;21.20;51.60;;;;;;5049563;28;20510;-66
2024/01/11 07:45:19;;;;;;;11.03;9.93;;;21.20;51.50;;;;;;5048058;28;20962;-66
2024/01/11 07:47:47;;;;;;;12.47;9.10;;;21.20;51.50;;;;;;5044929;28;20460;-68
2024/01/11 07:50:16;;;;;;;10.00;9.00;;;21.20;51.50;;;;;;5048355;28;20860;-66
2024/01/11 07:52:45;;;;;;;10.70;9.20;;;21.20;51.50;;;;;;5051007;28;20449;-68
2024/01/11 07:55:13;;;;;;;12.40;9.60;;;21.20;51.40;;;;;;5042053;28;20783;-66
2024/01/11 07:57:42;;;;;;;10.53;9.43;;;21.20;51.40;;;;;;5048308;28;20813;-66
2024/01/11 08:00:10;;;;;;;11.67;10.43;;;21.20;51.30;;;;;;5048980;28;20453;-66
2024/01/11 08:02:43;;;;;;;12.50;10.10;;;21.20;51.30;;;;;;5048879;28;20446;-66
2024/01/11 08:05:11;;;;;;;11.80;9.70;;;21.20;51.30;;;;;;5043915;28;20949;-67
2024/01/11 08:07:41;;;;;;;11.20;9.63;;;21.20;51.20;;;;;;5047642;28;20578;-66
2024/01/11 08:10:10;;;;;;;11.13;9.70;;;21.20;51.20;;;;;;5046237;28;20553;-66
2024/01/11 08:12:38;;;;;;;15.80;10.10;;;21.20;51.10;;;;;;5050089;28;20548;-68
2024/01/11 08:15:12;;;;;;;11.00;9.53;;;21.20;51.10;;;;;;5045965;28;20450;-66
2024/01/11 08:17:45;;;;;;;12.30;10.07;;;21.20;51.10;;;;;;5046665;28;20457;-66
2024/01/11 08:20:16;;;;;;;10.10;9.00;;;21.20;51.10;;;;;;5049108;28;20838;-68
2024/01/11 08:22:45;;;;;;;12.13;10.93;;;21.20;51.00;;;;;;5048604;28;20461;-66
2024/01/11 08:25:14;;;;;;;13.03;11.47;;;21.20;51.00;;;;;;5049551;28;20475;-66
2024/01/11 08:27:43;;;;;;;11.83;9.90;;;21.20;51.00;;;;;;5053346;28;20460;-66
2024/01/11 08:30:12;;;;;;;10.97;9.87;;;21.20;51.00;;;;;;5049345;28;20552;-66
2024/01/11 08:32:41;;;;;;;12.93;10.30;;;21.20;51.00;;;;;;5052220;28;21049;-66
2024/01/11 08:35:12;;;;;;;13.47;10.70;;;21.20;51.10;;;;;;5046063;28;20451;-67
2024/01/11 08:37:41;;;;;;;13.73;11.33;;;21.20;51.00;;;;;;5046976;28;20857;-66
2024/01/11 08:40:10;;;;;;;12.73;10.30;;;21.20;51.00;;;;;;5049249;28;20518;-66
2024/01/11 08:42:41;;;;;;;11.13;9.93;;;21.20;51.00;;;;;;5050899;28;20868;-66
2024/01/11 08:45:09;;;;;;;12.90;11.60;;;21.20;51.10;;;;;;5048246;28;20469;-66
2024/01/11 08:47:38;;;;;;;12.23;10.90;;;21.20;51.10;;;;;;5050239;28;20812;-66
2024/01/11 08:50:08;;;;;;;11.40;10.27;;;21.20;51.10;;;;;;5045785;28;20927;-67
2024/01/11 08:52:39;;;;;;;13.10;11.07;;;21.20;51.10;;;;;;5047283;28;20452;-68
2024/01/11 08:55:07;;;;;;;12.20;10.20;;;21.20;51.20;;;;;;5045668;28;20531;-66
2024/01/11 08:57:37;;;;;;;14.53;10.60;;;21.20;51.20;;;;;;5048681;28;20935;-67
2024/01/11 09:00:07;;;;;;;12.43;10.50;;;21.20;51.20;;;;;;5046918;28;21038;-66
2024/01/11 09:02:35;;;;;;;13.30;12.00;;;21.20;51.20;;;;;;5048302;28;20455;-66
2024/01/11 09:05:07;;;;;;;11.23;10.07;;;21.20;51.20;;;;;;5051382;28;20884;-66
2024/01/11 09:07:38;;;;;;;15.47;11.20;;;21.20;51.10;;;;;;5045652;28;20521;-67
2024/01/11 09:10:09;;;;;;;12.57;11.27;;;21.20;51.10;;;;;;5050070;28;20462;-68
2024/01/11 09:12:37;;;;;;;13.37;11.07;;;21.20;51.10;;;;;;5045603;28;20467;-65
2024/01/11 09:15:06;;;;;;;13.27;10.77;;;21.20;51.10;;;;;;5047777;28;20476;-67
2024/01/11 09:17:37;;;;;;;13.10;11.27;;;21.20;51.10;;;;;;5045428;28;20473;-66
2024/01/11 09:20:06;;;;;;;12.27;10.60;;;21.20;51.10;;;;;;5046350;28;20480;-67
2024/01/11 09:22:35;;;;;;;13.40;12.03;;;21.20;51.10;;;;;;5049036;28;20463;-66
2024/01/11 09:25:07;;;;;;;11.70;10.43;;;21.20;51.10;;;;;;5048163;28;20472;-66
2024/01/11 09:27:35;;;;;;;12.30;11.00;;;21.20;51.00;;;;;;5047256;28;20457;-67
2024/01/11 09:30:04;;;;;;;12.73;11.47;;;21.30;51.00;;;;;;5044888;28;20459;-66
2024/01/11 09:32:32;;;;;;;12.57;11.30;;;21.30;51.00;;;;;;5049053;28;20534;-66
2024/01/11 09:35:01;;;;;;;11.93;10.50;;;21.30;51.10;;;;;;5045640;28;20452;-66
2024/01/11 09:37:29;;;;;;;12.43;10.97;;;21.30;51.10;;;;;;5045008;28;20828;-66
2024/01/11 09:39:58;;;;;;;12.80;10.50;;;21.30;51.00;;;;;;5045371;28;20950;-66
2024/01/11 09:42:28;;;;;;;13.47;11.00;;;21.30;51.00;;;;;;5046173;28;20460;-67
2024/01/11 09:44:57;;;;;;;10.93;9.80;;;21.30;51.10;;;;;;5046933;28;20482;-67
2024/01/11 09:47:26;;;;;;;13.90;11.07;;;21.30;51.00;;;;;;5043293;28;21034;-67
2024/01/11 09:49:55;;;;;;;12.53;11.23;;;21.30;51.00;;;;;;5045166;28;20490;-66
2024/01/11 09:52:25;;;;;;;12.83;10.93;;;21.30;50.90;;;;;;5048118;28;20447;-66
2024/01/11 09:54:54;;;;;;;12.33;10.60;;;21.30;50.90;;;;;;5047234;28;20456;-66
2024/01/11 09:57:29;;;;;;;12.77;10.70;;;21.30;50.90;;;;;;5046745;28;20532;-66
2024/01/11 09:59:58;;;;;;;11.43;10.23;;;21.30;50.80;;;;;;5041282;28;20464;-67
2024/01/11 10:02:27;;;;;;;12.90;11.60;;;21.30;50.80;;;;;;5048749;28;20521;-67
2024/01/11 10:04:56;;;;;;;12.80;11.50;;;21.30;50.70;;;;;;5043174;28;20465;-67
2024/01/11 10:07:25;;;;;;;12.87;11.43;;;21.30;50.70;;;;;;5046926;28;20497;-66
2024/01/11 10:09:54;;;;;;;14.30;12.23;;;21.30;50.70;;;;;;5050153;28;20443;-67
2024/01/11 10:12:24;;;;;;;11.30;10.20;;;21.30;50.70;;;;;;5049888;28;20445;-67
2024/01/11 10:14:55;;;;;;;11.90;10.70;;;21.30;50.60;;;;;;5050352;28;20831;-67
2024/01/11 10:17:24;;;;;;;12.30;11.00;;;21.30;50.60;;;;;;5045893;28;20974;-67
2024/01/11 10:19:55;;;;;;;21.80;10.90;;;21.30;50.60;;;;;;5041638;28;20451;-66
2024/01/11 10:22:23;;;;;;;12.23;11.03;;;21.30;50.60;;;;;;5044477;28;20492;-66
2024/01/11 10:25:10;;;;;;;12.83;11.53;;;21.30;50.70;;;;;;5046258;28;20511;-66
2024/01/11 10:27:41;;;;;;;13.00;11.73;;;21.30;50.70;;;;;;5044989;28;20504;-66
2024/01/11 10:30:16;;;;;;;15.67;11.50;;;21.30;50.70;;;;;;5048708;28;20792;-66
2024/01/11 10:32:45;;;;;;;12.40;10.13;;;21.30;50.70;;;;;;5043074;28;20448;-67
2024/01/11 10:35:13;;;;;;;13.63;11.70;;;21.30;50.80;;;;;;5045402;28;20456;-65
2024/01/11 10:37:43;;;;;;;11.60;10.00;;;21.30;50.80;;;;;;5038949;28;20850;-67
2024/01/11 10:40:13;;;;;;;12.60;11.30;;;21.30;50.80;;;;;;5044921;28;20469;-65
2024/01/11 10:42:43;;;;;;;13.53;12.23;;;21.30;50.80;;;;;;5052211;28;20474;-66
2024/01/11 10:45:16;;;;;;;13.30;11.07;;;21.30;50.80;;;;;;5049663;28;20875;-66
2024/01/11 10:47:52;;;;;;;14.47;11.13;;;21.30;50.90;;;;;;5050446;28;20453;-66
2024/01/11 10:50:22;;;;;;;12.97;11.70;;;21.30;50.90;;;;;;5050584;28;20465;-66
2024/01/11 10:53:04;;;;;;;12.83;11.53;;;21.30;50.80;;;;;;5050252;28;20944;-66
2024/01/11 10:55:35;;;;;;;13.10;11.73;;;21.30;50.80;;;;;;5045759;28;20465;-66
2024/01/11 10:58:04;;;;;;;13.53;11.70;;;21.30;50.80;;;;;;5048777;28;20473;-66
2024/01/11 11:00:36;;;;;;;13.30;11.37;;;21.40;50.80;;;;;;5048993;28;20924;-66
2024/01/11 11:03:07;;;;;;;11.43;10.23;;;21.40;50.80;;;;;;5044865;28;20905;-65
2024/01/11 11:05:36;;;;;;;14.60;11.50;;;21.40;50.80;;;;;;5050717;28;20457;-66
2024/01/11 11:08:06;;;;;;;12.37;10.30;;;21.40;50.70;;;;;;5049350;28;20520;-67
2024/01/11 11:10:35;;;;;;;14.73;11.93;;;21.40;50.70;;;;;;5046777;28;20778;-67
2024/01/11 11:13:06;;;;;;;12.10;11.00;;;21.40;50.60;;;;;;5042953;28;20960;-66
2024/01/11 11:15:37;;;;;;;11.97;10.77;;;21.40;50.60;;;;;;5052017;28;20456;-66
2024/01/11 11:18:07;;;;;;;12.73;11.43;;;21.40;50.60;;;;;;5044878;28;20467;-68
2024/01/11 11:20:35;;;;;;;12.70;11.40;;;21.40;50.60;;;;;;5050182;28;20461;-66
2024/01/11 11:23:08;;;;;;;12.17;11.07;;;21.40;50.60;;;;;;5044787;28;20472;-65
2024/01/11 11:25:38;;;;;;;11.87;10.67;;;21.40;50.60;;;;;;5051554;28;20529;-67
2024/01/11 11:28:06;;;;;;;12.67;11.37;;;21.40;50.60;;;;;;5047076;28;20457;-67
2024/01/11 11:30:39;;;;;;;11.57;10.37;;;21.40;50.60;;;;;;5048033;28;20506;-67
2024/01/11 11:33:11;;;;;;;13.17;11.87;;;21.40;50.60;;;;;;5044335;28;20461;-66
2024/01/11 11:35:39;;;;;;;13.20;11.70;;;21.40;50.60;;;;;;5043821;28;20828;-66
2024/01/11 11:38:08;;;;;;;13.43;10.87;;;21.50;50.50;;;;;;5044799;28;20465;-67
2024/01/11 11:40:39;;;;;;;12.27;10.97;;;21.50;50.50;;;;;;5043923;28;20459;-67
2024/01/11 11:43:08;;;;;;;12.30;10.27;;;21.50;50.40;;;;;;5049925;28;20469;-66
2024/01/11 11:45:38;;;;;;;12.57;11.23;;;21.50;50.40;;;;;;5051678;28;20461;-66
2024/01/11 11:48:40;;;;;;;11.73;10.73;;;21.50;50.40;;;;;;5048969;28;20980;-68
2024/01/11 11:51:10;;;;;;;12.67;11.37;;;21.50;50.30;;;;;;5049209;28;20468;-67
2024/01/11 11:53:39;;;;;;;13.00;11.43;;;21.50;50.30;;;;;;5049983;28;20464;-66
2024/01/11 11:56:09;;;;;;;12.00;10.67;;;21.50;50.30;;;;;;5045445;28;20461;-66
2024/01/11 11:58:38;;;;;;;12.20;10.97;;;21.50;50.20;;;;;;5042264;28;20474;-67
2024/01/11 12:01:08;;;;;;;12.03;9.60;;;21.50;50.20;;;;;;5054912;28;20457;-66
2024/01/11 12:03:38;;;;;;;13.43;12.03;;;21.50;50.20;;;;;;5049871;28;21029;-68
2024/01/11 12:06:08;;;;;;;13.33;11.27;;;21.50;50.10;;;;;;5049422;28;20566;-66
2024/01/11 12:08:37;;;;;;;12.60;11.30;;;21.50;50.10;;;;;;5047124;28;20464;-67
2024/01/11 12:11:06;;;;;;;13.63;11.87;;;21.60;50.00;;;;;;5052921;28;20542;-67
2024/01/11 12:13:35;;;;;;;13.43;12.00;;;21.60;50.00;;;;;;5046876;28;20800;-67
2024/01/11 12:16:04;;;;;;;13.40;11.60;;;21.70;49.90;;;;;;5053838;28;20460;-66
2024/01/11 12:18:34;;;;;;;11.90;10.70;;;21.70;49.80;;;;;;5040509;28;20501;-66
2024/01/11 12:21:03;;;;;;;12.47;11.20;;;21.80;49.70;;;;;;5041859;28;20461;-66
2024/01/11 12:23:32;;;;;;;13.30;11.40;;;21.80;49.70;;;;;;5040676;28;20485;-66
2024/01/11 12:26:02;;;;;;;12.60;11.40;;;21.90;49.70;;;;;;5044497;28;20779;-66
2024/01/11 12:28:31;;;;;;;14.03;12.33;;;22.00;49.60;;;;;;5038673;28;20809;-66
2024/01/11 12:31:00;;;;;;;12.47;10.97;;;22.00;49.50;;;;;;5044851;28;20549;-66
2024/01/11 12:33:29;;;;;;;14.43;11.90;;;22.10;49.40;;;;;;5043977;28;20467;-66
2024/01/11 12:35:58;;;;;;;13.23;11.53;;;22.10;49.40;;;;;;5050274;28;20552;-67
2024/01/11 12:38:27;;;;;;;13.90;12.40;;;22.10;49.40;;;;;;5047927;28;20485;-67
2024/01/11 12:40:55;;;;;;;14.07;12.40;;;22.20;49.30;;;;;;5051889;28;20454;-66
2024/01/11 12:43:23;;;;;;;15.43;12.43;;;22.20;49.20;;;;;;5047282;28;20462;-67
2024/01/11 12:45:53;;;;;;;14.20;12.90;;;22.20;49.10;;;;;;5049315;28;20463;-66
2024/01/11 12:48:24;;;;;;;13.03;11.67;;;22.30;49.10;;;;;;5047934;28;20461;-67